Time;durP1;ratioP1;P1;durP2;ratioP2;P2;SDS_P1;SDS_P2;PMS_P1;PMS_P2;Temp;Humidity;BMP_temperature;BMP_pressure;BME280_temperature;BME280_humidity;BME280_pressure;Samples;Min_cycle;Max_cycle;Signal;HPM_P1;HPM_P2
2022/05/26 00:03:48;;;;;;;6.47;5.20;;;;;;;8.93;86.38;100810.16;10361228;28;20042;-70
2022/05/26 00:08:50;;;;;;;6.57;5.07;;;;;;;9.02;86.12;100829.66;10352147;28;20533;-72
2022/05/26 00:13:51;;;;;;;6.35;4.50;;;;;;;8.98;86.29;100834.41;10339720;28;20409;-70
2022/05/26 00:18:52;;;;;;;7.63;4.40;;;;;;;7.41;85.88;100561.56;10340046;28;20042;-71
2022/05/26 00:23:57;;;;;;;6.35;5.13;;;;;;;8.99;87.84;100825.47;10338859;28;20126;-70
2022/05/26 00:28:57;;;;;;;18.73;5.43;;;;;;;8.84;86.35;100813.69;10339097;28;20039;-71
2022/05/26 00:33:58;;;;;;;21.63;6.13;;;;;;;8.06;86.84;100694.75;10338198;28;20066;-71
2022/05/26 00:38:59;;;;;;;9.20;5.03;;;;;;;8.04;87.00;100702.00;10339183;28;20050;-71
2022/05/26 00:44:00;;;;;;;10.73;5.68;;;;;;;8.76;87.28;100832.94;10337858;28;20141;-70
2022/05/26 00:49:01;;;;;;;22.88;5.97;;;;;;;8.69;87.77;100843.28;10338316;28;20125;-71
2022/05/26 00:54:07;;;;;;;51.90;8.15;;;;;;;8.42;88.21;100790.25;10363987;28;20041;-71
2022/05/26 00:59:39;;;;;;;48.97;8.13;;;;;;;8.77;90.12;100839.09;10418357;28;20065;-71
2022/05/26 01:04:46;;;;;;;23.25;5.68;;;;;;;8.61;88.27;100835.22;10418965;28;20033;-71
2022/05/26 01:09:46;;;;;;;11.50;5.70;;;;;;;7.06;87.42;100586.78;10375653;28;20070;-71
2022/05/26 01:15:03;;;;;;;20.73;5.90;;;;;;;8.68;89.76;100838.16;10337622;28;20528;-71
2022/05/26 01:20:16;;;;;;;15.32;5.50;;;;;;;8.59;89.35;100842.50;10336208;28;20042;-70
2022/05/26 01:25:38;;;;;;;11.40;4.72;;;;;;;8.58;89.04;100846.09;10336363;28;20038;-71
2022/05/26 01:31:29;;;;;;;25.65;5.07;;;;;;;8.60;89.28;100851.25;10337109;28;20450;-71
2022/05/26 01:36:57;;;;;;;9.48;4.82;;;;;;;8.56;90.51;100869.25;10327190;28;20437;-71
2022/05/26 01:42:13;;;;;;;9.75;4.65;;;;;;;8.63;89.75;100866.88;10335701;28;20054;-71
2022/05/26 01:47:42;;;;;;;18.23;5.32;;;;;;;8.63;89.57;100880.09;10336020;28;20089;-70
2022/05/26 01:53:00;;;;;;;9.77;4.07;;;;;;;8.51;89.11;100841.53;10335802;28;20104;-71
2022/05/26 01:58:16;;;;;;;26.83;5.63;;;;;;;7.98;89.81;100751.00;10335732;28;20169;-71
2022/05/26 02:03:24;;;;;;;8.43;4.38;;;;;;;8.55;88.70;100816.41;10335108;28;20076;-71
2022/05/26 02:08:28;;;;;;;25.95;6.45;;;;;;;9.07;88.02;100889.19;10339416;28;20172;-71
2022/05/26 02:13:34;;;;;;;10.50;4.90;;;;;;;9.36;88.49;100889.09;10341063;28;20050;-71
2022/05/26 02:18:45;;;;;;;8.20;5.40;;;;;;;9.69;88.35;100891.28;10333992;28;20046;-71
2022/05/26 02:23:50;;;;;;;10.38;5.15;;;;;;;10.16;86.81;100889.28;10334481;28;20053;-71
2022/05/26 02:34:12;;;;;;;28.65;5.43;;;;;;;11.17;84.67;100878.22;10333898;28;20199;-71
2022/05/26 02:39:13;;;;;;;9.50;5.25;;;;;;;11.93;83.66;100885.31;10334273;28;20039;-71
2022/05/26 02:44:14;;;;;;;7.03;4.72;;;;;;;12.28;81.91;100822.13;10333250;28;20426;-72
2022/05/26 02:49:52;;;;;;;10.05;5.35;;;;;;;13.27;78.59;100905.44;10333551;28;20034;-72
2022/05/26 02:54:53;;;;;;;6.28;4.57;;;;;;;13.50;78.67;100889.53;10358523;28;20045;-72
2022/05/26 03:00:13;;;;;;;5.28;4.15;;;;;;;13.13;75.57;100784.22;10414735;28;20052;-72
2022/05/26 03:05:23;;;;;;;21.17;4.60;;;;;;;13.47;76.60;100899.53;10414923;28;20037;-72
2022/05/26 03:10:31;;;;;;;10.35;4.70;;;;;;;12.94;78.00;100884.97;10414354;28;20044;-71
2022/05/26 03:15:33;;;;;;;7.25;4.60;;;;;;;12.59;78.48;100867.53;10413492;28;20041;-72
2022/05/26 03:20:33;;;;;;;9.63;4.45;;;;;;;12.83;78.13;100897.84;10414090;28;20037;-72
2022/05/26 03:25:34;;;;;;;42.88;5.93;;;;;;;13.19;76.46;100877.75;10414056;28;20405;-72
2022/05/26 03:30:37;;;;;;;7.97;5.13;;;;;;;13.12;76.22;100855.44;10413072;28;20049;-71
2022/05/26 03:40:58;;;;;;;6.95;4.60;;;;;;;15.30;71.21;100899.63;10411102;28;20045;-70
2022/05/26 03:46:00;;;;;;;8.15;4.35;;;;;;;15.24;71.38;100879.75;10390529;28;20050;-72
2022/05/26 03:51:01;;;;;;;7.18;4.47;;;;;;;14.91;70.81;100859.75;10360020;28;20038;-73
2022/05/26 03:56:04;;;;;;;5.90;4.30;;;;;;;14.57;69.88;100764.84;10370663;28;20568;-72
2022/05/26 04:01:07;;;;;;;6.23;4.10;;;;;;;15.93;68.32;100908.88;10347949;28;20506;-71
2022/05/26 04:06:08;;;;;;;6.05;3.85;;;;;;;15.89;68.50;100888.84;10332145;28;20034;-72
2022/05/26 04:11:09;;;;;;;9.20;3.72;;;;;;;15.72;68.92;100906.97;10330426;28;20054;-73
2022/05/26 04:16:09;;;;;;;8.38;4.35;;;;;;;14.82;68.59;100773.41;10330063;28;20050;-72
2022/05/26 04:21:12;;;;;;;7.82;4.80;;;;;;;15.78;68.56;100891.19;10331457;28;20047;-72
2022/05/26 04:26:13;;;;;;;9.20;4.82;;;;;;;15.74;68.79;100880.00;10329771;28;20081;-74
2022/05/26 04:31:14;;;;;;;7.40;4.18;;;;;;;15.74;68.98;100883.50;10330586;28;20043;-72
2022/05/26 04:36:14;;;;;;;11.13;4.43;;;;;;;15.70;69.04;100894.78;10330699;28;20096;-73
2022/05/26 04:41:15;;;;;;;7.00;4.25;;;;;;;16.34;67.90;100891.34;10330600;28;20082;-71
2022/05/26 04:46:17;;;;;;;9.43;4.43;;;;;;;16.55;67.32;100890.50;10403038;28;20053;-71
2022/05/26 04:51:18;;;;;;;7.28;4.55;;;;;;;16.80;67.51;100886.38;10411401;28;20064;-72
2022/05/26 04:56:19;;;;;;;9.60;4.90;;;;;;;16.90;67.15;100880.66;10415867;28;20045;-72
2022/05/26 05:01:20;;;;;;;7.10;4.72;;;;;;;16.62;65.90;100747.34;10419182;28;20083;-72
2022/05/26 05:06:21;;;;;;;6.18;4.78;;;;;;;17.56;64.12;100842.59;10419142;28;20088;-72
2022/05/26 05:11:22;;;;;;;7.20;4.88;;;;;;;18.17;63.85;100888.22;10418812;28;20489;-72
2022/05/26 05:16:27;;;;;;;10.93;4.80;;;;;;;17.63;64.10;100737.84;10418203;28;20056;-72
2022/05/26 05:21:40;;;;;;;9.75;4.85;;;;;;;18.09;63.60;100754.00;10417981;28;20620;-72
2022/05/26 05:26:45;;;;;;;6.13;4.63;;;;;;;18.65;62.54;100871.91;10418584;28;20033;-72
2022/05/26 05:31:57;;;;;;;7.25;4.47;;;;;;;18.06;61.73;100762.47;10417885;28;20042;-73
2022/05/26 05:36:59;;;;;;;8.45;4.45;;;;;;;19.29;61.12;100864.13;10418252;28;20448;-72
2022/05/26 05:42:00;;;;;;;6.47;4.20;;;;;;;19.48;60.80;100857.84;10417887;28;20080;-72
2022/05/26 05:47:01;;;;;;;6.10;3.85;;;;;;;19.50;60.44;100847.66;10416976;28;20064;-73
2022/05/26 05:52:09;;;;;;;7.97;4.20;;;;;;;19.70;59.24;100849.47;10417486;28;20465;-73
2022/05/26 05:57:10;;;;;;;5.95;3.95;;;;;;;19.86;59.41;100837.34;10423708;28;20037;-73
2022/05/26 06:02:10;;;;;;;6.75;4.57;;;;;;;20.15;59.21;100834.03;10415828;28;20501;-73
2022/05/26 06:07:17;;;;;;;8.30;3.88;;;;;;;20.27;57.61;100810.69;10416981;28;20469;-73
2022/05/26 06:12:18;;;;;;;5.07;3.65;;;;;;;20.59;58.79;100832.25;10416512;28;20063;-72
2022/05/26 06:17:19;;;;;;;7.82;3.55;;;;;;;20.85;57.44;100806.88;10415912;28;20077;-73
2022/05/26 06:22:22;;;;;;;4.20;3.40;;;;;;;20.93;57.30;100789.53;10415986;28;20039;-73
2022/05/26 06:38:12;;;;;;;4.85;3.33;;;;;;;20.84;55.51;100739.56;10416597;28;20447;-73
2022/05/26 06:43:16;;;;;;;6.15;2.80;;;;;;;19.92;54.47;100589.25;10415548;28;20034;-73
2022/05/26 06:48:17;;;;;;;8.05;3.10;;;;;;;21.54;54.46;100823.72;10414558;28;20485;-73
2022/05/26 06:53:20;;;;;;;9.32;2.97;;;;;;;21.56;53.47;100821.59;10414410;28;20040;-73
2022/05/26 06:58:21;;;;;;;6.47;2.90;;;;;;;21.63;53.63;100824.22;10414149;28;20073;-73
2022/05/26 07:03:22;;;;;;;4.68;2.70;;;;;;;21.16;53.53;100724.00;10415356;28;20092;-73
2022/05/26 07:08:23;;;;;;;7.05;3.28;;;;;;;21.95;53.47;100832.88;10413833;28;20044;-73
2022/05/26 07:13:26;;;;;;;9.63;3.00;;;;;;;22.26;53.36;100842.66;10413699;28;20081;-73
2022/05/26 07:18:27;;;;;;;6.47;2.63;;;;;;;22.09;52.59;100787.53;10413599;28;20525;-74
2022/05/26 07:23:27;;;;;;;5.13;2.75;;;;;;;22.11;52.40;100807.06;10414265;28;20033;-73
2022/05/26 07:28:28;;;;;;;8.55;2.78;;;;;;;22.43;51.58;100776.97;10413279;28;20047;-72
2022/05/26 07:33:29;;;;;;;5.85;2.50;;;;;;;22.79;49.21;100795.69;10413274;28;20038;-76
2022/05/26 07:44:01;;;;;;;4.82;2.05;;;;;;;23.68;46.02;100811.56;10412737;28;20096;-73
2022/05/26 07:49:02;;;;;;;4.80;1.77;;;;;;;22.92;45.13;100781.06;10414054;28;20038;-74
2022/05/26 07:54:03;;;;;;;2.75;1.80;;;;;;;22.44;43.37;100694.72;10413255;28;20047;-75
2022/05/26 07:59:05;;;;;;;4.07;2.10;;;;;;;22.49;44.70;100814.75;10413287;28;20048;-72
2022/05/26 08:04:07;;;;;;;4.95;1.92;;;;;;;22.69;44.56;100798.16;10412378;28;20053;-73
2022/05/26 08:09:07;;;;;;;5.82;1.90;;;;;;;22.79;43.61;100800.25;10412856;28;20404;-74
2022/05/26 08:14:09;;;;;;;3.15;1.33;;;;;;;23.10;43.45;100782.81;10412045;28;20041;-72
2022/05/26 08:19:10;;;;;;;5.75;2.53;;;;;;;23.03;43.37;100738.75;10412992;28;20034;-73
2022/05/26 08:24:11;;;;;;;4.32;1.98;;;;;;;23.44;42.34;100777.47;10412599;28;20524;-74
2022/05/26 08:29:11;;;;;;;4.38;2.00;;;;;;;23.59;42.40;100772.34;10415681;28;20048;-73
2022/05/26 08:34:13;;;;;;;34.55;3.53;;;;;;;23.62;41.63;100687.78;10420202;28;20053;-72
2022/05/26 08:39:15;;;;;;;4.30;2.15;;;;;;;24.07;41.04;100784.56;10420105;28;20045;-72
2022/05/26 08:44:24;;;;;;;5.57;1.80;;;;;;;24.22;39.78;100775.03;10420929;28;20060;-73
2022/05/26 08:49:40;;;;;;;3.03;1.70;;;;;;;24.36;39.64;100779.88;10419914;28;20042;-73
2022/05/26 08:54:47;;;;;;;3.97;1.73;;;;;;;23.33;38.27;100657.19;10419565;28;20409;-72
2022/05/26 08:59:48;;;;;;;4.22;1.92;;;;;;;24.43;39.35;100770.75;10418850;28;20128;-72
2022/05/26 09:04:49;;;;;;;7.57;1.90;;;;;;;24.64;39.30;100769.16;10419247;28;20627;-72
2022/05/26 09:15:19;;;;;;;4.72;1.90;;;;;;;24.82;38.78;100771.56;10418842;28;20516;-72
2022/05/26 09:20:41;;;;;;;8.70;2.10;;;;;;;25.25;37.97;100756.34;10418494;28;20628;-73
2022/05/26 09:25:52;;;;;;;3.28;1.70;;;;;;;24.73;36.94;100642.69;10418634;28;20037;-72
2022/05/26 09:30:53;;;;;;;4.72;1.90;;;;;;;24.77;36.92;100644.66;10417626;28;20033;-75
2022/05/26 09:36:00;;;;;;;6.15;1.50;;;;;;;25.48;36.84;100747.88;10418141;28;20084;-71
2022/05/26 09:41:15;;;;;;;8.65;2.00;;;;;;;25.71;35.15;100749.44;10417229;28;20116;-71
2022/05/26 09:46:16;;;;;;;6.25;1.88;;;;;;;25.90;36.08;100733.56;10428651;28;20041;-71
2022/05/26 09:51:38;;;;;;;5.50;2.00;;;;;;;25.79;35.78;100715.50;10459019;28;20138;-72
2022/05/26 09:56:42;;;;;;;2.83;1.88;;;;;;;25.62;35.69;100685.72;10454020;28;20048;-72
2022/05/26 10:01:43;;;;;;;8.02;1.98;;;;;;;25.78;34.79;100719.28;10458292;28;20072;-75
2022/05/26 10:07:08;;;;;;;4.93;2.10;;;;;;;25.69;34.53;100718.13;10457503;28;20071;-72
2022/05/26 10:12:38;;;;;;;4.50;1.70;;;;;;;25.65;33.86;100704.22;10457803;28;20037;-72
2022/05/26 10:18:14;;;;;;;4.43;1.60;;;;;;;25.70;33.02;100696.13;10457076;28;20524;-72
2022/05/26 10:23:37;;;;;;;4.38;1.77;;;;;;;25.72;34.45;100695.84;10457107;28;20087;-72
2022/05/26 10:28:56;;;;;;;5.37;1.90;;;;;;;25.72;34.70;100691.22;10457616;28;20045;-72
2022/05/26 10:34:03;;;;;;;3.80;1.60;;;;;;;25.71;34.58;100691.50;10457156;28;20275;-72
2022/05/26 10:39:17;;;;;;;4.35;1.65;;;;;;;25.55;31.85;100696.00;10457283;28;20068;-75
2022/05/26 10:44:35;;;;;;;8.77;3.65;;;;;;;25.48;32.51;100669.00;10456461;28;20492;-72
2022/05/26 10:49:52;;;;;;;2.33;1.40;;;;;;;24.67;32.71;100582.03;10455559;28;20048;-72
2022/05/26 10:55:14;;;;;;;8.05;1.80;;;;;;;25.23;31.77;100669.59;10456018;28;20048;-72
2022/05/26 11:00:21;;;;;;;2.80;1.53;;;;;;;25.44;31.96;100670.59;10456281;28;20120;-74
2022/05/26 11:05:41;;;;;;;3.95;1.48;;;;;;;25.68;32.11;100670.25;10456638;28;20491;-73
2022/05/26 11:10:53;;;;;;;7.47;2.55;;;;;;;25.66;32.28;100656.06;10455790;28;20041;-73
2022/05/26 11:21:24;;;;;;;3.53;1.90;;;;;;;25.34;33.35;100654.22;10455391;28;20040;-72
2022/05/26 11:26:41;;;;;;;6.93;1.75;;;;;;;25.15;31.92;100584.97;10455011;28;20051;-72
2022/05/26 11:37:28;;;;;;;2.75;1.60;;;;;;;25.18;34.45;100525.44;10428975;28;20106;-70
2022/05/26 11:42:47;;;;;;;7.05;2.10;;;;;;;25.34;32.60;100496.50;10464731;28;20527;-69
2022/05/26 11:47:58;;;;;;;3.40;1.70;;;;;;;26.42;31.89;100628.50;10470983;28;20481;-69
2022/05/26 11:53:02;;;;;;;3.17;1.40;;;;;;;26.41;32.55;100624.97;10488901;28;20037;-69
2022/05/26 11:58:31;;;;;;;3.60;1.70;;;;;;;26.56;33.00;100624.22;10424405;28;20440;-70
2022/05/26 12:03:31;;;;;;;4.72;1.48;;;;;;;25.66;33.09;100482.78;10420886;28;20504;-70
2022/05/26 12:08:54;;;;;;;3.67;1.75;;;;;;;26.41;32.37;100605.91;10421378;28;20041;-69
2022/05/26 12:14:05;;;;;;;9.20;1.80;;;;;;;25.87;33.15;100505.47;10460170;28;20036;-70
2022/05/26 12:19:09;;;;;;;6.05;1.77;;;;;;;26.30;33.12;100590.63;10481225;28;20048;-70
2022/05/26 12:24:31;;;;;;;4.90;1.60;;;;;;;25.89;33.03;100609.47;10476160;28;20256;-70
2022/05/26 12:29:50;;;;;;;6.85;1.80;;;;;;;25.82;32.90;100592.56;10452727;28;20422;-68
2022/05/26 12:35:19;;;;;;;3.30;1.52;;;;;;;26.00;33.31;100585.84;10482624;28;20393;-67
2022/05/26 12:40:33;;;;;;;5.40;2.15;;;;;;;26.10;33.14;100599.50;10441537;28;20041;-68
2022/05/26 12:46:00;;;;;;;12.32;1.98;;;;;;;26.21;32.78;100588.69;10454393;28;20102;-70
2022/05/26 12:51:10;;;;;;;4.20;1.33;;;;;;;26.23;32.18;100590.03;10501030;28;20432;-69
2022/05/26 12:56:21;;;;;;;3.05;1.55;;;;;;;25.60;30.05;100529.25;10469493;28;20048;-70
2022/05/26 13:01:24;;;;;;;3.78;1.77;;;;;;;25.44;32.91;100596.34;10448968;28;20083;-71
2022/05/26 13:06:32;;;;;;;3.90;1.90;;;;;;;25.05;33.08;100577.50;10457781;28;20047;-70
2022/05/26 13:11:41;;;;;;;7.90;2.22;;;;;;;25.38;32.90;100595.50;10426246;28;20071;-69
2022/05/26 13:16:42;;;;;;;4.28;1.50;;;;;;;25.43;32.74;100554.75;10460242;28;20059;-70
2022/05/26 13:21:49;;;;;;;2.17;1.33;;;;;;;25.05;31.79;100466.06;10432042;28;20111;-70
2022/05/26 13:27:03;;;;;;;9.52;1.65;;;;;;;25.30;33.27;100476.31;10417976;28;20045;-70
2022/05/26 13:37:30;;;;;;;2.40;1.50;;;;;;;25.28;34.17;100541.03;10449122;28;20118;-71
2022/05/26 13:42:32;;;;;;;5.93;1.92;;;;;;;25.14;34.76;100534.41;10458640;28;20045;-70
2022/05/26 13:47:33;;;;;;;13.48;3.13;;;;;;;25.47;34.49;100566.72;10459252;28;20106;-70
2022/05/26 13:52:36;;;;;;;16.17;2.50;;;;;;;24.86;34.48;100446.66;10450276;28;20079;-70
2022/05/26 13:57:45;;;;;;;4.90;1.55;;;;;;;25.21;35.33;100549.41;10450371;28;20033;-70
2022/05/26 14:03:21;;;;;;;3.95;1.52;;;;;;;25.13;34.27;100543.59;10452117;28;20508;-70
2022/05/26 14:08:23;;;;;;;8.13;2.00;;;;;;;24.33;34.82;100415.75;10438320;28;20053;-69
2022/05/26 14:13:29;;;;;;;8.10;1.85;;;;;;;25.19;34.46;100537.97;10467252;28;20048;-70
2022/05/26 14:19:08;;;;;;;7.70;2.05;;;;;;;25.28;34.42;100541.03;10497775;28;20067;-69
2022/05/26 14:24:21;;;;;;;13.63;2.17;;;;;;;25.05;34.09;100545.72;10452391;28;20099;-69
2022/05/26 14:29:24;;;;;;;4.30;1.57;;;;;;;24.87;35.04;100535.22;10489182;28;20105;-69
2022/05/26 14:34:33;;;;;;;;;;;;;;;25.09;35.35;100532.41;10498722;28;20291;-70
2022/05/26 14:39:35;;;;;;;6.15;1.75;;;;;;;24.60;35.45;100535.25;10496440;28;20015;-69
2022/05/26 14:44:36;;;;;;;21.33;2.83;;;;;;;23.73;35.36;100414.84;10497387;28;20037;-69
2022/05/26 14:49:37;;;;;;;16.90;2.45;;;;;;;23.59;35.61;100400.81;10497711;28;20033;-69
2022/05/26 14:59:58;;;;;;;6.50;1.70;;;;;;;23.84;36.23;100508.00;10458389;28;20064;-69
2022/05/26 15:04:59;;;;;;;12.38;2.03;;;;;;;23.56;36.62;100515.22;10480775;28;20109;-69
2022/05/26 15:09:59;;;;;;;14.10;2.33;;;;;;;23.34;37.53;100527.91;10496828;28;20036;-70
2022/05/26 15:15:02;;;;;;;71.72;6.30;;;;;;;23.05;38.75;100546.97;10461766;28;20550;-72
2022/05/26 15:20:06;;;;;;;181.13;15.13;;;;;;;22.72;39.80;100545.00;10467403;28;20493;-71
2022/05/26 15:25:09;;;;;;;150.55;11.55;;;;;;;22.30;41.79;100519.06;10455581;28;20037;-70
2022/05/26 15:30:14;;;;;;;33.10;4.27;;;;;;;20.97;43.95;100347.84;10455087;28;20040;-69
2022/05/26 15:35:18;;;;;;;78.22;8.07;;;;;;;21.77;46.16;100541.72;10454065;28;20064;-70
2022/05/26 15:40:21;;;;;;;76.10;6.88;;;;;;;21.30;46.33;100505.75;10454787;28;20041;-71
2022/05/26 15:45:22;;;;;;;42.80;5.20;;;;;;;21.05;47.38;100496.00;10455344;28;20048;-70
2022/05/26 15:50:25;;;;;;;63.70;5.95;;;;;;;20.14;49.17;100400.84;10452685;28;20041;-70
2022/05/26 15:55:26;;;;;;;;;;;;;;;21.00;47.70;100535.56;10455386;28;20436;-68
2022/05/26 16:00:29;;;;;;;44.10;4.78;;;;;;;20.46;49.05;100522.00;10452876;28;19913;-70
2022/05/26 16:05:29;;;;;;;31.50;4.20;;;;;;;19.92;50.33;100489.50;10454504;28;20235;-72
2022/05/26 16:10:30;;;;;;;37.78;4.22;;;;;;;19.94;51.79;100517.06;10453339;28;20134;-69
2022/05/26 16:15:31;;;;;;;32.70;4.30;;;;;;;19.77;52.65;100516.00;10454102;28;20045;-70
2022/05/26 16:20:35;;;;;;;100.78;41.03;;;;;;;19.57;55.71;100522.41;10452945;28;20033;-71
2022/05/26 16:25:35;;;;;;;335.87;159.60;;;;;;;19.40;54.67;100521.34;10452948;28;20405;-71
2022/05/26 16:30:37;;;;;;;366.17;170.40;;;;;;;19.14;55.71;100511.63;10452711;28;20044;-70
2022/05/26 16:40:58;;;;;;;248.82;98.32;;;;;;;17.10;57.70;100263.44;10453491;28;20481;-70
2022/05/26 16:45:59;;;;;;;289.85;85.88;;;;;;;18.54;58.69;100522.78;10450910;28;20423;-73
2022/05/26 16:51:03;;;;;;;148.32;63.17;;;;;;;18.02;58.83;100493.25;10458225;28;20098;-72
2022/05/26 16:56:09;;;;;;;113.35;53.47;;;;;;;18.08;60.24;100537.28;10478028;28;20131;-73
2022/05/26 17:01:10;;;;;;;123.53;45.33;;;;;;;17.16;59.70;100407.53;10454277;28;20105;-72
2022/05/26 17:06:11;;;;;;;78.22;39.78;;;;;;;17.50;60.93;100495.06;10459683;28;20041;-72
2022/05/26 17:11:12;;;;;;;63.65;32.55;;;;;;;17.56;62.10;100541.75;10443545;28;20041;-72
2022/05/26 17:21:40;;;;;;;84.63;37.33;;;;;;;16.30;66.11;100419.03;10418197;28;20045;-74
2022/05/26 17:26:42;;;;;;;91.13;48.83;;;;;;;16.03;65.60;100396.72;10416281;28;20037;-71
2022/05/26 17:31:43;;;;;;;60.90;33.53;;;;;;;16.65;66.20;100524.31;10443812;28;20082;-72
2022/05/26 17:36:48;;;;;;;68.05;34.10;;;;;;;16.46;67.07;100519.75;10457392;28;20064;-71
2022/05/26 17:41:50;;;;;;;70.18;39.30;;;;;;;16.49;68.73;100556.88;10458829;28;20044;-75
2022/05/26 17:46:52;;;;;;;106.97;33.50;;;;;;;16.58;69.32;100565.56;10469252;28;20515;-74
2022/05/26 17:51:59;;;;;;;65.45;33.17;;;;;;;16.51;72.40;100567.41;10437854;28;20068;-73
2022/05/26 17:57:00;;;;;;;48.65;30.00;;;;;;;15.36;70.59;100398.31;10457463;28;20047;-73
2022/05/26 18:02:01;;;;;;;77.82;26.67;;;;;;;16.33;71.24;100563.44;10451346;28;20037;-72
2022/05/26 18:07:02;;;;;;;56.85;24.95;;;;;;;15.51;71.37;100438.31;10454164;28;20040;-73
2022/05/26 18:12:05;;;;;;;49.58;22.42;;;;;;;15.72;72.93;100507.88;10448478;28;20068;-72
2022/05/26 18:17:17;;;;;;;44.78;21.63;;;;;;;15.77;75.54;100520.69;10453622;28;20079;-72
2022/05/26 18:22:20;;;;;;;46.42;20.60;;;;;;;15.82;74.03;100555.75;10455004;28;20048;-70
2022/05/26 18:27:21;;;;;;;50.70;18.75;;;;;;;14.91;74.10;100426.41;10452743;28;20032;-75
2022/05/26 18:32:25;;;;;;;40.67;14.93;;;;;;;14.97;75.97;100444.38;10445767;28;20037;-72
2022/05/26 18:37:35;;;;;;;29.27;12.93;;;;;;;14.48;78.27;100364.94;10475616;28;20056;-71
2022/05/26 18:42:36;;;;;;;25.38;13.45;;;;;;;14.82;75.71;100431.09;10452916;28;20036;-72
2022/05/26 18:47:41;;;;;;;27.80;12.30;;;;;;;15.00;77.23;100505.50;10459395;28;20049;-73
2022/05/26 18:52:42;;;;;;;25.48;12.80;;;;;;;14.23;76.23;100425.97;10454435;28;20025;-72
2022/05/26 18:57:43;;;;;;;86.10;31.90;;;;;;;14.84;77.48;100544.88;10454918;28;20400;-72
2022/05/26 19:02:44;;;;;;;62.22;26.30;;;;;;;14.78;78.13;100544.81;10453045;28;20044;-73
2022/05/26 19:07:46;;;;;;;69.05;29.50;;;;;;;14.25;78.22;100491.56;10445097;28;20224;-72
2022/05/26 19:12:50;;;;;;;75.32;29.90;;;;;;;14.57;79.40;100551.78;10443043;28;20132;-72
2022/05/26 19:18:06;;;;;;;94.95;41.83;;;;;;;14.22;78.96;100507.16;10451769;28;20044;-72
2022/05/26 19:23:07;;;;;;;111.15;47.20;;;;;;;14.01;78.58;100460.69;10455280;28;20041;-72
2022/05/26 19:28:11;;;;;;;112.85;45.65;;;;;;;13.64;79.30;100413.59;10454523;28;20508;-72
2022/05/26 19:33:12;;;;;;;99.47;41.72;;;;;;;14.30;79.29;100528.44;10454686;28;20616;-73
2022/05/26 19:38:13;;;;;;;68.47;30.70;;;;;;;14.19;79.63;100518.22;10455267;28;20102;-72
2022/05/26 19:43:23;;;;;;;57.95;26.85;;;;;;;14.03;81.56;100490.72;10454922;28;20037;-72
2022/05/26 19:48:24;;;;;;;81.70;31.08;;;;;;;13.29;80.02;100385.84;10495885;28;20044;-72
2022/05/26 19:53:25;;;;;;;79.82;36.17;;;;;;;13.10;80.67;100382.69;10495772;28;20033;-72
2022/05/26 19:58:29;;;;;;;79.10;32.53;;;;;;;13.87;83.37;100517.59;10480419;28;20653;-72
2022/05/26 20:03:30;;;;;;;59.90;24.57;;;;;;;13.26;82.13;100407.56;10440239;28;20049;-72
2022/05/26 20:08:31;;;;;;;50.33;20.98;;;;;;;13.65;81.38;100490.81;10454274;28;20037;-73
2022/05/26 20:13:32;;;;;;;48.60;22.42;;;;;;;12.08;81.62;100259.75;10453930;28;20041;-72
2022/05/26 20:18:32;;;;;;;38.53;17.02;;;;;;;13.54;81.97;100515.31;10454060;28;20036;-72
2022/05/26 20:23:33;;;;;;;52.22;24.80;;;;;;;13.08;82.38;100469.22;10455417;28;20107;-72
2022/05/26 20:33:55;;;;;;;50.13;22.25;;;;;;;13.33;83.09;100500.00;10461184;28;20041;-72
2022/05/26 20:38:56;;;;;;;35.03;18.65;;;;;;;13.06;83.53;100485.41;10461789;28;20135;-72
2022/05/26 20:43:57;;;;;;;29.85;13.10;;;;;;;13.21;84.39;100507.59;10459444;28;20099;-72
2022/05/26 20:48:58;;;;;;;22.38;13.20;;;;;;;13.14;84.55;100517.34;10425647;28;20037;-72
2022/05/26 20:53:59;;;;;;;25.10;13.38;;;;;;;13.02;84.40;100473.44;10460290;28;20048;-72
2022/05/26 20:59:00;;;;;;;26.05;12.98;;;;;;;13.06;85.30;100479.25;10459890;28;20563;-73
2022/05/26 21:04:01;;;;;;;25.60;11.70;;;;;;;13.21;85.31;100494.25;10460116;28;20091;-72
2022/05/26 21:09:04;;;;;;;25.85;13.45;;;;;;;13.27;85.70;100495.41;10460599;28;20098;-72
2022/05/26 21:14:05;;;;;;;37.00;18.48;;;;;;;13.19;84.54;100466.09;10459702;28;20057;-72
2022/05/26 21:19:07;;;;;;;46.65;22.42;;;;;;;12.57;83.60;100347.22;10459578;28;20044;-73
2022/05/26 21:24:09;;;;;;;47.80;22.63;;;;;;;13.37;84.69;100479.97;10459379;28;20154;-73
2022/05/26 21:29:18;;;;;;;49.88;20.67;;;;;;;13.06;86.92;100432.06;10459691;28;20107;-72
2022/05/26 21:34:19;;;;;;;35.33;17.85;;;;;;;13.37;85.02;100495.97;10458975;28;20556;-72
2022/05/26 21:39:20;;;;;;;34.50;17.48;;;;;;;13.13;84.95;100467.69;10456857;28;20090;-72
2022/05/26 21:44:21;;;;;;;31.85;15.63;;;;;;;13.00;85.06;100467.44;10457940;28;20037;-72
2022/05/26 21:49:22;;;;;;;27.95;14.20;;;;;;;12.86;85.53;100477.06;10458901;28;20032;-73
2022/05/26 21:54:30;;;;;;;29.08;14.23;;;;;;;12.10;88.35;100364.25;10458591;28;20041;-72
2022/05/26 21:59:31;;;;;;;38.08;19.00;;;;;;;12.57;87.00;100467.16;10459123;28;20374;-72
2022/05/26 22:10:40;;;;;;;25.58;11.88;;;;;;;12.65;87.07;100480.38;10479081;28;20064;-72
2022/05/26 22:15:16;;;;;;;18.65;9.88;;;;;;;11.84;87.33;100327.28;10499406;28;20099;-72
2022/05/26 22:20:20;;;;;;;21.27;11.48;;;;;;;12.29;87.01;100397.56;10499290;28;20041;-73
2022/05/26 22:25:21;;;;;;;22.98;11.10;;;;;;;12.49;86.82;100448.56;10499162;28;20044;-72
2022/05/26 22:30:22;;;;;;;18.38;9.32;;;;;;;12.65;86.74;100469.72;10498113;28;20040;-72
2022/05/26 22:35:25;;;;;;;17.00;9.32;;;;;;;12.77;87.34;100472.81;10498563;28;20122;-72
2022/05/26 22:40:35;;;;;;;12.65;9.13;;;;;;;12.89;89.18;100484.72;10496625;28;20511;-72
2022/05/26 22:45:43;;;;;;;25.00;9.05;;;;;;;12.78;88.52;100471.81;10497230;28;20584;-72
2022/05/26 22:50:47;;;;;;;14.50;9.32;;;;;;;12.81;88.22;100467.97;10498108;28;20029;-73
2022/05/26 22:55:50;;;;;;;18.73;9.40;;;;;;;12.95;88.17;100486.69;10498208;28;20036;-72
2022/05/26 23:00:51;;;;;;;16.77;9.03;;;;;;;12.63;87.97;100422.97;10497505;28;20044;-73
2022/05/26 23:05:52;;;;;;;14.70;8.40;;;;;;;12.03;88.77;100331.38;10497238;28;20044;-72
2022/05/26 23:10:53;;;;;;;15.90;8.65;;;;;;;12.93;88.80;100467.34;10497591;28;20041;-72
2022/05/26 23:15:53;;;;;;;13.02;7.10;;;;;;;12.94;88.70;100462.84;10497193;28;20044;-72
2022/05/26 23:20:55;;;;;;;11.88;6.63;;;;;;;12.91;88.42;100485.34;10496182;28;20584;-72
2022/05/26 23:25:56;;;;;;;8.18;5.72;;;;;;;12.59;87.88;100449.13;10496989;28;20394;-72
2022/05/26 23:30:56;;;;;;;7.38;5.45;;;;;;;12.87;87.73;100489.41;10496430;28;20041;-72
2022/05/26 23:35:57;;;;;;;8.20;5.07;;;;;;;12.87;87.39;100496.56;10496298;28;20082;-73
2022/05/26 23:46:20;;;;;;;9.80;5.45;;;;;;;12.91;87.74;100482.69;10496139;28;20040;-72
2022/05/26 23:51:21;;;;;;;7.68;5.32;;;;;;;12.96;87.61;100490.16;10495301;28;20032;-72
